Terminal Aerodrome Forecast
Issued by NWS

Home | Current Version | Previous Version | Text Only | Print | Product List | Glossary On
Versions: 1 2 3 4 5 6 7 8 9 10 11 12 13 14 15 16 17 18 19 20 21 22 23 24 25 26 27
000
FTUS43 KGLD 050520
TAFMCK
TAF
KMCK 050520Z 0506/0606 14010KT P6SM BKN250
     FM051700 17014G20KT P6SM FEW250
     FM052000 19022G31KT P6SM FEW250
     FM060200 19016KT P6SM SCT250
     FM060400 22012KT P6SM VCTS SCT090CB BKN250=

USA.gov is the U.S. government's official web portal to all federal, state and local government web resources and services.